Time;durP1;ratioP1;P1;durP2;ratioP2;P2;SDS_P1;SDS_P2;PMS_P1;PMS_P2;Temp;Humidity;BMP_temperature;BMP_pressure;BME280_temperature;BME280_humidity;BME280_pressure;Samples;Min_cycle;Max_cycle;Signal;HPM_P1;HPM_P2
2021/12/09 00:01:10;;;;;;;5.88;4.72;;;2.10;99.90;;;;;;5056827;28;20025;-82
2021/12/09 00:03:40;;;;;;;7.65;5.22;;;2.00;99.90;;;;;;5054152;28;20376;-82
2021/12/09 00:06:06;;;;;;;9.57;5.63;;;2.00;99.90;;;;;;5054094;28;20040;-82
2021/12/09 00:08:33;;;;;;;6.32;5.25;;;2.00;99.90;;;;;;5053169;28;20029;-83
2021/12/09 00:11:01;;;;;;;5.82;4.82;;;2.00;99.90;;;;;;5053942;28;20080;-81
2021/12/09 00:13:28;;;;;;;10.18;5.03;;;2.00;99.90;;;;;;5054476;28;20056;-81
2021/12/09 00:15:54;;;;;;;10.18;5.38;;;2.00;99.90;;;;;;5054243;28;20036;-80
2021/12/09 00:18:19;;;;;;;10.32;5.07;;;2.10;99.90;;;;;;5052928;28;20544;-82
2021/12/09 00:20:48;;;;;;;11.57;5.13;;;2.00;99.90;;;;;;5053390;28;20108;-81
2021/12/09 00:23:15;;;;;;;9.63;5.13;;;2.10;99.90;;;;;;5053156;28;20025;-82
2021/12/09 00:25:41;;;;;;;12.20;6.13;;;2.10;99.90;;;;;;5051376;28;20415;-82
2021/12/09 00:28:06;;;;;;;10.65;4.50;;;2.00;99.90;;;;;;5072114;28;20036;-82
2021/12/09 00:30:32;;;;;;;7.47;5.13;;;2.00;99.90;;;;;;5059044;28;20025;-82
2021/12/09 00:33:04;;;;;;;9.07;4.20;;;2.00;99.90;;;;;;5053603;28;20032;-81
2021/12/09 00:35:43;;;;;;;11.25;4.88;;;2.00;99.90;;;;;;5053400;28;20021;-81
2021/12/09 00:38:18;;;;;;;11.27;5.18;;;1.90;99.90;;;;;;5070767;28;20044;-83
2021/12/09 00:40:46;;;;;;;11.23;4.93;;;1.90;99.90;;;;;;5056827;28;20075;-82
2021/12/09 00:43:11;;;;;;;9.52;4.70;;;1.90;99.90;;;;;;5072913;28;20029;-81
2021/12/09 00:45:37;;;;;;;11.48;5.38;;;2.10;99.90;;;;;;5055196;28;20025;-81
2021/12/09 00:48:03;;;;;;;9.45;5.30;;;2.10;99.90;;;;;;5054441;28;20033;-82
2021/12/09 00:50:29;;;;;;;10.15;5.07;;;2.10;99.90;;;;;;5058118;28;20055;-81
2021/12/09 00:52:54;;;;;;;8.02;5.03;;;2.20;99.90;;;;;;5057722;28;20025;-82
2021/12/09 00:55:20;;;;;;;9.07;4.82;;;2.20;99.90;;;;;;5057811;28;20032;-82
2021/12/09 00:57:46;;;;;;;7.18;4.15;;;2.10;99.90;;;;;;5057985;28;20083;-81
2021/12/09 01:00:18;;;;;;;9.88;4.40;;;2.10;99.90;;;;;;5057992;28;20021;-81
2021/12/09 01:02:44;;;;;;;7.85;5.03;;;2.10;99.90;;;;;;5069359;28;20025;-81
2021/12/09 01:05:10;;;;;;;11.18;4.82;;;2.00;99.90;;;;;;5057510;28;20099;-82
2021/12/09 01:07:37;;;;;;;10.23;4.57;;;2.00;99.90;;;;;;5056769;28;20035;-82
2021/12/09 01:10:06;;;;;;;10.18;4.28;;;2.00;99.90;;;;;;5057271;28;20029;-82
2021/12/09 01:12:32;;;;;;;7.65;4.85;;;2.00;99.90;;;;;;5057971;28;20044;-82
2021/12/09 01:14:58;;;;;;;4.95;4.05;;;1.90;99.90;;;;;;5057075;28;20060;-82
2021/12/09 01:17:24;;;;;;;10.63;4.22;;;1.90;99.90;;;;;;5057516;28;20029;-81
2021/12/09 01:19:52;;;;;;;7.95;4.43;;;1.90;99.90;;;;;;5058073;28;20070;-82
2021/12/09 01:22:28;;;;;;;11.30;4.82;;;1.90;99.90;;;;;;5058464;28;20119;-81
2021/12/09 01:24:53;;;;;;;7.63;4.20;;;1.90;99.90;;;;;;5056916;28;20040;-81
2021/12/09 01:27:19;;;;;;;10.85;4.22;;;1.90;99.90;;;;;;5057550;28;20036;-81
2021/12/09 01:29:52;;;;;;;4.65;3.72;;;1.90;99.90;;;;;;5057431;28;20025;-81
2021/12/09 01:32:24;;;;;;;7.68;6.38;;;2.00;99.90;;;;;;5056752;28;20481;-82
2021/12/09 01:34:50;;;;;;;11.63;4.13;;;2.00;99.90;;;;;;5058247;28;20049;-83
2021/12/09 01:37:16;;;;;;;7.70;3.95;;;2.00;99.90;;;;;;5057793;28;20516;-81
2021/12/09 01:39:41;;;;;;;8.88;3.97;;;2.10;99.90;;;;;;5058429;28;20039;-82
2021/12/09 01:42:07;;;;;;;11.65;4.13;;;2.00;99.90;;;;;;5057788;28;20032;-81
2021/12/09 01:44:33;;;;;;;7.45;4.50;;;2.10;99.90;;;;;;5056922;28;20021;-82
2021/12/09 01:46:58;;;;;;;9.05;4.03;;;2.10;99.90;;;;;;5056489;28;20078;-82
2021/12/09 01:49:24;;;;;;;6.78;4.15;;;2.00;99.90;;;;;;5056202;28;20139;-82
2021/12/09 01:51:50;;;;;;;6.72;4.18;;;2.10;99.90;;;;;;5056547;28;20096;-81
2021/12/09 01:54:16;;;;;;;4.43;3.58;;;2.00;99.90;;;;;;5056776;28;20063;-82
2021/12/09 01:56:42;;;;;;;3.85;3.47;;;2.10;99.90;;;;;;5056427;28;20024;-81
2021/12/09 01:59:08;;;;;;;14.20;4.43;;;2.00;99.90;;;;;;5055453;28;20036;-83
2021/12/09 02:01:35;;;;;;;8.93;3.92;;;2.00;99.90;;;;;;5056293;28;20033;-81
2021/12/09 02:04:03;;;;;;;8.35;3.60;;;2.10;99.90;;;;;;5055683;28;20431;-83
2021/12/09 02:06:29;;;;;;;16.45;4.50;;;2.10;99.90;;;;;;5056001;28;20504;-81
2021/12/09 02:08:55;;;;;;;9.00;3.72;;;2.00;99.90;;;;;;5056116;28;20043;-82
2021/12/09 02:11:20;;;;;;;8.32;4.05;;;2.10;99.90;;;;;;5055154;28;20128;-82
2021/12/09 02:13:50;;;;;;;10.63;3.80;;;2.00;99.90;;;;;;5056221;28;20043;-82
2021/12/09 02:16:17;;;;;;;10.57;3.90;;;2.00;99.90;;;;;;5054984;28;20500;-81
2021/12/09 02:18:43;;;;;;;10.82;3.47;;;2.10;99.90;;;;;;5055806;28;20035;-82
2021/12/09 02:21:20;;;;;;;13.25;3.85;;;2.10;99.90;;;;;;5055913;28;20060;-82
2021/12/09 02:23:52;;;;;;;8.35;3.80;;;2.10;99.90;;;;;;5055391;28;20329;-82
2021/12/09 02:26:24;;;;;;;12.73;3.70;;;2.10;99.90;;;;;;5054441;28;20079;-82
2021/12/09 02:28:51;;;;;;;9.20;3.55;;;2.10;99.90;;;;;;5073576;28;20028;-81
2021/12/09 02:31:17;;;;;;;8.68;4.20;;;2.00;99.90;;;;;;5061385;28;20374;-82
2021/12/09 02:33:42;;;;;;;10.70;3.58;;;2.00;99.90;;;;;;5058337;28;20032;-82
2021/12/09 02:36:09;;;;;;;8.70;4.50;;;1.90;99.90;;;;;;5070221;28;20048;-82
2021/12/09 02:38:42;;;;;;;29.33;4.80;;;1.90;99.90;;;;;;5070938;28;20009;-81
2021/12/09 02:41:10;;;;;;;8.95;3.65;;;1.90;99.90;;;;;;5059451;28;20025;-80
2021/12/09 02:43:36;;;;;;;10.77;3.42;;;1.80;99.90;;;;;;5072849;28;20009;-82
2021/12/09 02:46:02;;;;;;;13.43;4.10;;;1.80;99.90;;;;;;5059747;28;20494;-82
2021/12/09 02:48:28;;;;;;;11.13;3.65;;;1.80;99.90;;;;;;5055711;28;20036;-82
2021/12/09 02:50:54;;;;;;;12.25;4.00;;;1.80;99.90;;;;;;5057712;28;20048;-82
2021/12/09 02:53:21;;;;;;;7.32;3.00;;;1.80;99.90;;;;;;5054923;28;20095;-82
2021/12/09 02:55:50;;;;;;;5.88;3.20;;;1.80;99.90;;;;;;5054581;28;20116;-81
2021/12/09 02:58:15;;;;;;;8.07;3.58;;;1.80;99.90;;;;;;5055098;28;20058;-82
2021/12/09 03:01:14;;;;;;;10.23;4.18;;;1.80;99.90;;;;;;5054809;28;20439;-82
2021/12/09 03:03:50;;;;;;;7.53;4.13;;;1.80;99.90;;;;;;5042761;28;20057;-82
2021/12/09 03:06:28;;;;;;;6.03;3.63;;;1.90;99.90;;;;;;5054282;28;20033;-81
2021/12/09 03:08:54;;;;;;;9.35;3.00;;;1.90;99.90;;;;;;5054291;28;20100;-82
2021/12/09 03:11:21;;;;;;;8.02;4.30;;;1.90;99.90;;;;;;5054073;28;20059;-81
2021/12/09 03:13:49;;;;;;;11.73;4.25;;;1.90;99.90;;;;;;5054796;28;20040;-81
2021/12/09 03:16:19;;;;;;;12.07;3.45;;;1.80;99.90;;;;;;5054057;28;20119;-82
2021/12/09 03:18:47;;;;;;;8.60;3.65;;;1.80;99.90;;;;;;5054684;28;20436;-82
2021/12/09 03:21:32;;;;;;;10.02;3.03;;;1.90;99.90;;;;;;5053613;28;20063;-81
2021/12/09 03:23:58;;;;;;;8.15;3.00;;;1.80;99.90;;;;;;5055181;28;20059;-81
2021/12/09 03:26:29;;;;;;;14.80;3.65;;;1.80;99.90;;;;;;5054667;28;20021;-81
2021/12/09 03:28:56;;;;;;;;;;;1.80;99.90;;;;;;5054512;28;20090;-81
2021/12/09 03:31:21;;;;;;;4.45;2.92;;;1.80;99.90;;;;;;5054442;28;20245;-81
2021/12/09 03:33:50;;;;;;;9.32;3.90;;;1.70;99.90;;;;;;5054531;28;20036;-81
2021/12/09 03:36:16;;;;;;;10.77;3.53;;;1.70;99.90;;;;;;5056731;28;20381;-81
2021/12/09 03:38:42;;;;;;;15.02;3.65;;;1.60;99.90;;;;;;5054643;28;20021;-82
2021/12/09 03:41:08;;;;;;;11.60;3.50;;;1.60;99.90;;;;;;5054406;28;20480;-82
2021/12/09 03:43:35;;;;;;;17.02;4.65;;;1.60;99.90;;;;;;5053528;28;20049;-82
2021/12/09 03:46:01;;;;;;;9.35;3.38;;;1.60;99.90;;;;;;5056266;28;20025;-80
2021/12/09 03:48:28;;;;;;;14.00;3.35;;;1.60;99.90;;;;;;5053983;28;20044;-82
2021/12/09 03:50:54;;;;;;;12.63;3.83;;;1.50;99.90;;;;;;5053898;28;20131;-81
2021/12/09 03:53:20;;;;;;;9.98;3.67;;;1.60;99.90;;;;;;5054713;28;20051;-81
2021/12/09 03:55:46;;;;;;;7.45;3.55;;;1.60;99.90;;;;;;5054652;28;20028;-81
2021/12/09 03:58:11;;;;;;;21.40;3.92;;;1.60;99.90;;;;;;5054629;28;20021;-81
2021/12/09 04:00:37;;;;;;;8.80;3.55;;;1.60;99.90;;;;;;5048943;28;20030;-80
2021/12/09 04:03:03;;;;;;;8.00;3.60;;;1.70;99.90;;;;;;5053800;28;20334;-81
2021/12/09 04:05:29;;;;;;;7.75;3.05;;;1.60;99.90;;;;;;5056167;28;20111;-81
2021/12/09 04:07:56;;;;;;;13.40;3.05;;;1.70;99.90;;;;;;5063784;28;20024;-81
2021/12/09 04:10:22;;;;;;;11.07;3.08;;;1.70;99.90;;;;;;5061927;28;20021;-82
2021/12/09 04:12:47;;;;;;;20.77;4.30;;;1.70;99.90;;;;;;5054996;28;20079;-81
2021/12/09 04:15:13;;;;;;;15.30;4.10;;;1.70;99.90;;;;;;5055063;28;20033;-81
2021/12/09 04:17:39;;;;;;;8.32;3.30;;;1.70;99.90;;;;;;5054107;28;20039;-81
2021/12/09 04:20:07;;;;;;;8.35;4.15;;;1.60;99.90;;;;;;5054036;28;20029;-82
2021/12/09 04:22:33;;;;;;;7.18;3.60;;;1.70;99.90;;;;;;5053453;28;20029;-80
2021/12/09 04:24:59;;;;;;;6.63;3.15;;;1.70;99.90;;;;;;5053242;28;20025;-81
2021/12/09 04:27:25;;;;;;;8.80;3.17;;;1.60;99.90;;;;;;5054232;28;20033;-81
2021/12/09 04:29:51;;;;;;;11.57;3.92;;;1.60;99.90;;;;;;5073189;28;20009;-82
2021/12/09 04:32:17;;;;;;;5.03;3.33;;;1.60;99.90;;;;;;5059367;28;20037;-82
2021/12/09 04:34:44;;;;;;;10.43;3.47;;;1.60;99.90;;;;;;5054792;28;20021;-82
2021/12/09 04:37:10;;;;;;;9.07;3.42;;;1.50;99.90;;;;;;5055111;28;20035;-82
2021/12/09 04:39:36;;;;;;;9.10;3.17;;;1.50;99.90;;;;;;5070789;28;20044;-81
2021/12/09 04:42:05;;;;;;;12.00;3.70;;;1.40;99.90;;;;;;5058331;28;20044;-83
2021/12/09 04:44:30;;;;;;;12.45;3.53;;;1.40;99.90;;;;;;5074380;28;21152;-81
2021/12/09 04:47:00;;;;;;;8.90;2.83;;;1.40;99.90;;;;;;5056969;28;20064;-82
2021/12/09 04:49:26;;;;;;;12.50;3.45;;;1.40;99.90;;;;;;5055520;28;20025;-82
2021/12/09 04:51:53;;;;;;;12.27;3.53;;;1.40;99.90;;;;;;5054673;28;20086;-81
2021/12/09 04:54:19;;;;;;;13.70;4.18;;;1.40;99.90;;;;;;5053621;28;20033;-82
2021/12/09 04:56:45;;;;;;;13.40;3.47;;;1.40;99.90;;;;;;5054221;28;20022;-83
2021/12/09 04:59:11;;;;;;;16.75;3.78;;;1.40;99.90;;;;;;5053718;28;20025;-81
2021/12/09 05:01:37;;;;;;;16.35;3.40;;;1.40;99.90;;;;;;5055141;28;20048;-83
2021/12/09 05:04:04;;;;;;;10.13;3.80;;;1.50;99.90;;;;;;5055945;28;20154;-83
2021/12/09 05:06:30;;;;;;;5.90;3.08;;;1.50;99.90;;;;;;5054882;28;20021;-83
2021/12/09 05:08:57;;;;;;;9.73;4.03;;;1.60;99.90;;;;;;5054527;28;20074;-83
2021/12/09 05:14:09;;;;;;;13.15;3.63;;;1.70;99.90;;;;;;5053350;28;20025;-82
2021/12/09 05:16:37;;;;;;;13.85;3.60;;;1.70;99.90;;;;;;5054355;28;20049;-83
2021/12/09 05:19:02;;;;;;;8.73;2.72;;;1.80;99.90;;;;;;5055030;28;20047;-83
2021/12/09 05:21:34;;;;;;;13.00;3.10;;;1.70;99.90;;;;;;5054124;28;20521;-83
2021/12/09 05:24:00;;;;;;;13.15;3.33;;;1.80;99.90;;;;;;5054560;28;20080;-83
2021/12/09 05:26:31;;;;;;;9.90;3.13;;;1.80;99.90;;;;;;5054325;28;20021;-83
2021/12/09 05:28:57;;;;;;;17.25;4.38;;;1.80;99.90;;;;;;5053758;28;20068;-83
2021/12/09 05:34:12;;;;;;;4.57;3.45;;;1.70;99.90;;;;;;5056740;28;20129;-83
2021/12/09 05:36:38;;;;;;;10.60;3.40;;;1.60;99.90;;;;;;5058459;28;20044;-84
2021/12/09 05:39:08;;;;;;;12.32;3.10;;;1.70;99.90;;;;;;5056912;28;20045;-82
2021/12/09 05:41:33;;;;;;;16.15;3.40;;;1.80;99.90;;;;;;5067001;28;20036;-81
2021/12/09 05:44:03;;;;;;;10.93;3.45;;;1.80;99.90;;;;;;5064195;28;20029;-82
2021/12/09 05:46:29;;;;;;;7.53;2.85;;;1.80;99.90;;;;;;5058668;28;20072;-84
2021/12/09 05:48:55;;;;;;;12.18;2.67;;;1.80;99.90;;;;;;5057500;28;20033;-83
2021/12/09 05:51:24;;;;;;;20.92;3.38;;;1.70;99.90;;;;;;5059915;28;20009;-83
2021/12/09 05:53:51;;;;;;;10.52;3.45;;;0.90;99.90;;;;;;5058825;28;20025;-83
2021/12/09 05:56:17;;;;;;;11.35;3.70;;;1.70;99.90;;;;;;5058252;28;20122;-83
2021/12/09 05:58:43;;;;;;;14.07;3.35;;;1.70;99.90;;;;;;5058089;28;20499;-82
2021/12/09 06:01:08;;;;;;;5.65;2.60;;;1.70;99.90;;;;;;5061156;28;20084;-83
2021/12/09 06:03:34;;;;;;;9.00;2.97;;;1.70;99.90;;;;;;5057271;28;20098;-83
2021/12/09 06:06:00;;;;;;;11.57;3.33;;;1.70;99.90;;;;;;5057627;28;20547;-83
2021/12/09 06:08:26;;;;;;;5.25;1.98;;;1.60;99.90;;;;;;5057880;28;20044;-83
2021/12/09 06:10:53;;;;;;;10.40;2.90;;;1.60;99.90;;;;;;5056907;28;20524;-83
2021/12/09 06:13:19;;;;;;;19.05;2.97;;;1.60;99.90;;;;;;5056415;28;20033;-83
2021/12/09 06:15:46;;;;;;;9.35;2.75;;;1.70;99.90;;;;;;5057421;28;20028;-83
2021/12/09 06:18:12;;;;;;;6.18;2.78;;;1.70;99.90;;;;;;5056813;28;20496;-83
2021/12/09 06:20:37;;;;;;;11.07;2.50;;;1.70;99.90;;;;;;5057925;28;20029;-83
2021/12/09 06:23:03;;;;;;;12.40;4.30;;;1.80;99.90;;;;;;5058213;28;20026;-83
2021/12/09 06:25:30;;;;;;;12.18;3.17;;;1.80;99.90;;;;;;5057828;28;20029;-84
2021/12/09 06:27:56;;;;;;;8.50;2.75;;;1.70;99.90;;;;;;5058392;28;20033;-84
2021/12/09 06:30:22;;;;;;;15.50;3.60;;;1.80;99.90;;;;;;5073490;28;20052;-84
2021/12/09 06:32:48;;;;;;;15.02;2.90;;;1.90;99.90;;;;;;5061330;28;20048;-84
2021/12/09 06:35:14;;;;;;;8.43;2.55;;;1.90;99.90;;;;;;5058320;28;20047;-84
2021/12/09 06:37:44;;;;;;;9.40;2.33;;;1.90;99.90;;;;;;5058553;28;20060;-82
2021/12/09 06:40:13;;;;;;;9.02;3.47;;;1.90;99.90;;;;;;5072446;28;20064;-84
2021/12/09 06:42:40;;;;;;;12.25;3.72;;;1.90;99.90;;;;;;5065652;28;20041;-83
2021/12/09 06:45:06;;;;;;;6.18;3.13;;;1.90;99.90;;;;;;5073491;28;20025;-84
2021/12/09 06:47:32;;;;;;;9.00;3.05;;;1.90;99.90;;;;;;5059114;28;20496;-85
2021/12/09 06:49:58;;;;;;;10.95;3.08;;;1.90;99.90;;;;;;5043005;28;20033;-83
2021/12/09 06:52:23;;;;;;;7.32;2.92;;;1.90;99.90;;;;;;5035066;28;20040;-82
2021/12/09 06:54:49;;;;;;;13.15;2.90;;;2.00;99.90;;;;;;5037967;28;20021;-81
2021/12/09 06:57:15;;;;;;;5.93;2.33;;;2.00;99.90;;;;;;5044489;28;20417;-83
2021/12/09 06:59:40;;;;;;;5.90;2.40;;;2.00;99.90;;;;;;5036059;28;20045;-83
2021/12/09 07:02:07;;;;;;;9.20;3.22;;;2.00;99.90;;;;;;5043315;28;20036;-82
2021/12/09 07:04:33;;;;;;;9.40;3.17;;;2.00;99.90;;;;;;5037513;28;20110;-83
2021/12/09 07:06:58;;;;;;;15.13;4.03;;;2.00;99.90;;;;;;5036608;28;20061;-83
2021/12/09 07:09:28;;;;;;;12.85;4.25;;;2.00;99.90;;;;;;5037565;28;20077;-82
2021/12/09 07:11:54;;;;;;;9.20;2.83;;;2.10;99.90;;;;;;5035474;28;20053;-83
2021/12/09 07:14:20;;;;;;;12.63;3.58;;;2.10;99.90;;;;;;5044268;28;20025;-82
2021/12/09 07:16:45;;;;;;;9.77;3.60;;;2.00;99.90;;;;;;5041372;28;20393;-82
2021/12/09 07:19:11;;;;;;;15.98;4.15;;;2.10;99.90;;;;;;5033709;28;20013;-83
2021/12/09 07:21:37;;;;;;;6.90;3.30;;;2.10;99.90;;;;;;5042178;28;20055;-82
2021/12/09 07:24:03;;;;;;;10.73;3.45;;;2.00;99.90;;;;;;5034086;28;20014;-82
2021/12/09 07:26:30;;;;;;;7.35;3.58;;;2.00;99.90;;;;;;5049851;28;20024;-82
2021/12/09 07:28:56;;;;;;;6.22;3.40;;;2.10;99.90;;;;;;5049701;28;20025;-81
2021/12/09 07:31:24;;;;;;;14.13;3.20;;;2.10;99.90;;;;;;5052604;28;20112;-82
2021/12/09 07:33:50;;;;;;;9.73;3.47;;;2.30;99.90;;;;;;5049473;28;20017;-81
2021/12/09 07:36:16;;;;;;;17.45;4.80;;;2.20;99.90;;;;;;5048612;28;20092;-81
2021/12/09 07:38:42;;;;;;;10.77;3.67;;;2.20;99.90;;;;;;5050970;28;20028;-83
2021/12/09 07:41:08;;;;;;;7.60;3.50;;;2.20;99.90;;;;;;5052706;28;20021;-79
2021/12/09 07:43:33;;;;;;;10.73;4.60;;;2.10;99.90;;;;;;5050371;28;20112;-79
2021/12/09 07:46:00;;;;;;;17.05;4.25;;;2.10;99.90;;;;;;5048613;28;20061;-79
2021/12/09 07:48:26;;;;;;;9.48;4.15;;;2.20;99.90;;;;;;5044920;28;20056;-78
2021/12/09 07:50:52;;;;;;;13.13;4.10;;;2.20;99.90;;;;;;5045435;28;20029;-78
2021/12/09 07:53:18;;;;;;;15.20;4.00;;;2.20;99.90;;;;;;5045783;28;20086;-79
2021/12/09 07:55:45;;;;;;;8.20;3.88;;;2.20;99.90;;;;;;5041402;28;20031;-79
2021/12/09 07:58:10;;;;;;;5.95;3.95;;;2.20;99.90;;;;;;5050285;28;20075;-79
2021/12/09 08:00:36;;;;;;;15.02;3.60;;;2.20;99.90;;;;;;5053279;28;20465;-82
2021/12/09 08:03:03;;;;;;;16.55;5.53;;;2.20;99.90;;;;;;5053964;28;20423;-79
2021/12/09 08:05:31;;;;;;;12.18;4.28;;;2.30;99.90;;;;;;5050443;28;20032;-78
2021/12/09 08:07:57;;;;;;;10.15;3.40;;;2.40;99.90;;;;;;5050731;28;20370;-79
2021/12/09 08:10:24;;;;;;;10.50;4.38;;;2.40;99.90;;;;;;5049633;28;20110;-81
2021/12/09 08:12:51;;;;;;;5.90;3.40;;;2.40;99.90;;;;;;5053082;28;20186;-79
2021/12/09 08:15:17;;;;;;;8.80;4.30;;;2.50;99.90;;;;;;5047311;28;20029;-78
2021/12/09 08:20:16;;;;;;;7.63;3.95;;;2.70;99.90;;;;;;5033401;28;20033;-79
2021/12/09 08:22:43;;;;;;;8.82;3.92;;;2.70;99.90;;;;;;5035067;28;20384;-81
2021/12/09 08:25:12;;;;;;;12.90;3.60;;;2.80;99.90;;;;;;5035592;28;20040;-79
2021/12/09 08:27:39;;;;;;;8.63;4.18;;;2.80;99.90;;;;;;5035927;28;20561;-79
2021/12/09 08:30:06;;;;;;;6.88;3.60;;;3.00;99.90;;;;;;5048202;28;20021;-77
2021/12/09 08:32:33;;;;;;;12.18;4.95;;;3.00;99.90;;;;;;5051131;28;20035;-77
2021/12/09 08:35:00;;;;;;;8.23;3.97;;;3.10;99.90;;;;;;5032616;28;20108;-80
2021/12/09 08:37:26;;;;;;;13.88;5.22;;;3.10;99.90;;;;;;5039722;28;20075;-80
2021/12/09 08:39:51;;;;;;;15.50;4.95;;;3.20;99.90;;;;;;5046224;28;20795;-79
2021/12/09 08:42:17;;;;;;;12.07;4.32;;;3.20;99.90;;;;;;5052550;28;20033;-78
2021/12/09 08:44:43;;;;;;;16.88;5.45;;;3.30;99.90;;;;;;5051985;28;20474;-79
2021/12/09 08:47:10;;;;;;;6.80;4.25;;;3.40;99.90;;;;;;5037872;28;20037;-76
2021/12/09 08:49:35;;;;;;;14.93;5.88;;;3.50;99.90;;;;;;5033490;28;20477;-77
2021/12/09 08:52:02;;;;;;;13.60;5.30;;;3.60;99.90;;;;;;5033229;28;20037;-75
2021/12/09 08:54:27;;;;;;;13.30;5.60;;;3.60;99.90;;;;;;5033734;28;20022;-76
2021/12/09 08:56:53;;;;;;;12.75;5.50;;;3.70;99.90;;;;;;5033950;28;20374;-78
2021/12/09 08:59:21;;;;;;;11.98;5.05;;;3.80;99.90;;;;;;5035891;28;20033;-76
2021/12/09 09:01:47;;;;;;;11.55;4.50;;;3.80;99.90;;;;;;5032515;28;20029;-78
2021/12/09 09:04:14;;;;;;;15.43;5.32;;;3.90;99.90;;;;;;5032350;28;20087;-78
2021/12/09 09:06:53;;;;;;;16.25;5.53;;;3.90;99.90;;;;;;5032575;28;20025;-79
2021/12/09 09:09:19;;;;;;;11.48;5.32;;;3.80;99.90;;;;;;5035930;28;20426;-79
2021/12/09 09:11:46;;;;;;;6.43;5.10;;;3.90;99.90;;;;;;5037618;28;20490;-77
2021/12/09 09:14:11;;;;;;;11.32;6.32;;;3.90;99.90;;;;;;5036800;28;20033;-78
2021/12/09 09:16:38;;;;;;;18.00;6.07;;;4.00;99.90;;;;;;5038566;28;20120;-76
2021/12/09 09:19:04;;;;;;;13.07;5.25;;;4.00;99.90;;;;;;5046263;28;20029;-78
2021/12/09 09:21:31;;;;;;;12.13;5.43;;;3.90;99.90;;;;;;5045072;28;20080;-76
2021/12/09 09:23:57;;;;;;;13.07;5.10;;;4.00;99.90;;;;;;5055722;28;20036;-76
2021/12/09 09:26:23;;;;;;;13.15;6.35;;;4.10;99.90;;;;;;5045920;28;20028;-75
2021/12/09 09:28:49;;;;;;;16.42;5.25;;;4.10;99.90;;;;;;5051620;28;20465;-75
2021/12/09 09:31:15;;;;;;;9.75;5.47;;;4.10;99.90;;;;;;5053407;28;20078;-75
2021/12/09 09:33:41;;;;;;;10.32;4.90;;;4.10;99.90;;;;;;5051536;28;20033;-75
2021/12/09 09:36:09;;;;;;;18.52;6.78;;;4.20;99.90;;;;;;5052415;28;20028;-76
2021/12/09 09:38:35;;;;;;;14.85;5.00;;;4.20;99.90;;;;;;5049237;28;20120;-77
2021/12/09 09:41:10;;;;;;;12.90;5.05;;;4.20;99.90;;;;;;5049299;28;21779;-76
2021/12/09 09:46:40;;;;;;;15.13;5.68;;;4.30;99.90;;;;;;5045489;28;20029;-75
2021/12/09 09:49:06;;;;;;;18.92;5.72;;;4.30;99.90;;;;;;5042081;28;20049;-77
2021/12/09 09:51:33;;;;;;;16.40;5.72;;;4.40;99.90;;;;;;5052560;28;20091;-75
2021/12/09 09:54:01;;;;;;;13.77;5.65;;;4.50;99.90;;;;;;5047342;28;20461;-75
2021/12/09 09:56:27;;;;;;;14.93;7.07;;;4.50;99.90;;;;;;5048139;28;20090;-77
2021/12/09 09:58:59;;;;;;;11.82;5.55;;;4.60;99.90;;;;;;5052951;28;20025;-77
2021/12/09 10:01:28;;;;;;;19.42;5.95;;;4.70;99.90;;;;;;5052851;28;20065;-76
2021/12/09 10:04:09;;;;;;;13.73;8.02;;;4.80;99.90;;;;;;5054060;28;20082;-76
2021/12/09 10:06:35;;;;;;;9.13;5.55;;;4.80;99.90;;;;;;5052996;28;20036;-77
2021/12/09 10:09:01;;;;;;;20.30;6.45;;;4.90;99.90;;;;;;5052944;28;20029;-74
2021/12/09 10:11:26;;;;;;;14.45;6.70;;;4.90;99.90;;;;;;5052970;28;20120;-76
2021/12/09 10:13:52;;;;;;;19.90;6.75;;;4.90;99.90;;;;;;5053089;28;20032;-78
2021/12/09 10:16:21;;;;;;;17.65;5.72;;;4.90;99.90;;;;;;5052487;28;20602;-75
2021/12/09 10:18:49;;;;;;;16.23;6.85;;;4.90;99.90;;;;;;5053778;28;20049;-75
2021/12/09 10:21:22;;;;;;;23.60;6.80;;;4.90;99.90;;;;;;5054666;28;20033;-76
2021/12/09 10:23:55;;;;;;;15.43;7.13;;;5.00;99.90;;;;;;5052134;28;20025;-75
2021/12/09 10:26:30;;;;;;;14.85;6.97;;;5.00;99.90;;;;;;5052335;28;20060;-75
2021/12/09 10:29:32;;;;;;;15.70;6.63;;;5.10;99.90;;;;;;5050470;28;20041;-76
2021/12/09 10:32:01;;;;;;;26.38;8.20;;;5.20;99.90;;;;;;5050693;28;20070;-76
2021/12/09 10:37:12;;;;;;;14.48;8.57;;;5.40;99.90;;;;;;5048645;28;20064;-75
2021/12/09 10:39:46;;;;;;;14.13;7.40;;;5.40;99.90;;;;;;5049344;28;20480;-74
2021/12/09 10:42:34;;;;;;;17.50;7.82;;;5.40;99.90;;;;;;5051829;28;20470;-75
2021/12/09 10:45:08;;;;;;;20.90;9.35;;;5.40;99.90;;;;;;5041523;28;20079;-76
2021/12/09 10:50:17;;;;;;;16.95;9.73;;;5.50;99.90;;;;;;5052731;28;20032;-76
2021/12/09 10:52:49;;;;;;;17.85;9.23;;;5.40;99.90;;;;;;5048890;28;20033;-74
2021/12/09 10:55:22;;;;;;;15.32;9.25;;;5.50;99.90;;;;;;5051926;28;20021;-72
2021/12/09 10:58:15;;;;;;;18.73;10.20;;;5.50;99.90;;;;;;5051936;28;20059;-75
2021/12/09 11:00:46;;;;;;;23.30;9.38;;;5.50;99.90;;;;;;5055575;28;20041;-75
2021/12/09 11:03:22;;;;;;;16.42;9.18;;;5.60;99.90;;;;;;5054471;28;20377;-75
2021/12/09 11:06:02;;;;;;;20.50;9.23;;;5.60;99.90;;;;;;5040886;28;20156;-76
2021/12/09 11:08:34;;;;;;;15.35;9.93;;;5.70;99.90;;;;;;5037913;28;20041;-74
2021/12/09 11:11:12;;;;;;;19.63;10.77;;;5.80;99.90;;;;;;5040152;28;20013;-76
2021/12/09 11:13:45;;;;;;;18.48;10.30;;;5.80;99.90;;;;;;5044017;28;20029;-75
2021/12/09 11:16:12;;;;;;;13.48;9.82;;;5.90;99.90;;;;;;5054463;28;20033;-76
2021/12/09 11:18:43;;;;;;;27.23;11.88;;;5.90;99.90;;;;;;5058047;28;20025;-76
2021/12/09 11:21:26;;;;;;;17.90;11.60;;;5.90;99.90;;;;;;5054217;28;20029;-76
2021/12/09 11:24:05;;;;;;;24.52;13.35;;;5.90;99.90;;;;;;5046276;28;20049;-75
2021/12/09 11:29:18;;;;;;;22.65;15.00;;;6.00;99.90;;;;;;5049084;28;20040;-76
2021/12/09 11:31:55;;;;;;;21.75;12.63;;;6.00;99.90;;;;;;5045800;28;20031;-75
2021/12/09 11:34:26;;;;;;;23.25;13.57;;;6.00;99.90;;;;;;5049676;28;20025;-76
2021/12/09 11:37:03;;;;;;;26.90;13.93;;;6.10;99.90;;;;;;5050538;28;20112;-76
2021/12/09 11:39:36;;;;;;;19.83;14.07;;;6.10;99.90;;;;;;5049568;28;20398;-76
2021/12/09 11:42:18;;;;;;;20.08;14.48;;;6.10;99.90;;;;;;5049933;28;20021;-76
2021/12/09 11:44:45;;;;;;;26.02;13.93;;;6.10;99.90;;;;;;5052187;28;20074;-76
2021/12/09 11:47:12;;;;;;;23.05;15.75;;;6.20;99.90;;;;;;5047881;28;20128;-75
2021/12/09 11:49:38;;;;;;;25.83;15.40;;;6.10;99.90;;;;;;5052105;28;20029;-77
2021/12/09 11:52:04;;;;;;;28.85;16.80;;;6.10;99.90;;;;;;5051546;28;20032;-76
2021/12/09 11:54:30;;;;;;;24.17;16.05;;;6.20;99.90;;;;;;5046960;28;20033;-76
2021/12/09 11:57:12;;;;;;;31.85;17.33;;;6.20;99.90;;;;;;5041298;28;20025;-76
2021/12/09 12:11:27;;;;;;;34.45;18.70;;;6.40;99.90;;;;;;5051113;28;20044;-76
2021/12/09 12:14:03;;;;;;;39.47;18.38;;;6.40;99.90;;;;;;5044124;28;20033;-76
2021/12/09 12:17:00;;;;;;;39.50;19.20;;;6.40;99.90;;;;;;5049931;28;20456;-74
2021/12/09 12:20:19;;;;;;;35.08;19.15;;;6.40;99.90;;;;;;5051692;28;20108;-77
2021/12/09 12:37:07;;;;;;;31.30;18.55;;;6.20;99.90;;;;;;5050520;28;20022;-74
2021/12/09 12:42:24;;;;;;;33.60;18.63;;;6.30;99.90;;;;;;5052107;28;20029;-75
2021/12/09 12:45:10;;;;;;;33.50;18.90;;;6.30;99.90;;;;;;5054830;28;20422;-75
2021/12/09 12:47:42;;;;;;;39.38;19.67;;;6.30;99.90;;;;;;5055335;28;20037;-76
2021/12/09 12:50:28;;;;;;;34.95;18.52;;;6.40;99.90;;;;;;5055231;28;20025;-76
2021/12/09 12:53:30;;;;;;;31.45;18.20;;;6.30;99.90;;;;;;5051725;28;20021;-75
2021/12/09 12:56:19;;;;;;;34.40;18.90;;;6.30;99.90;;;;;;5055384;28;20032;-75
2021/12/09 13:01:33;;;;;;;33.25;17.40;;;6.30;99.90;;;;;;5055093;28;20029;-75
2021/12/09 13:04:10;;;;;;;34.55;18.08;;;6.30;99.90;;;;;;5055113;28;20096;-76
2021/12/09 13:06:45;;;;;;;27.08;16.55;;;6.30;99.90;;;;;;5054380;28;20025;-77
2021/12/09 13:09:40;;;;;;;30.83;18.98;;;6.30;99.90;;;;;;5054380;28;20384;-77
2021/12/09 13:12:09;;;;;;;28.23;17.40;;;6.20;99.90;;;;;;5052317;28;20036;-74
2021/12/09 13:15:06;;;;;;;39.05;18.00;;;6.30;99.90;;;;;;5053935;28;20032;-73
2021/12/09 13:17:48;;;;;;;32.00;17.42;;;6.20;99.90;;;;;;5052876;28;20442;-73
2021/12/09 13:20:29;;;;;;;32.58;16.90;;;6.20;99.90;;;;;;5046625;28;20075;-73
2021/12/09 13:23:19;;;;;;;32.45;15.65;;;6.20;99.90;;;;;;5054222;28;20059;-74
2021/12/09 13:26:21;;;;;;;31.65;16.98;;;6.20;99.90;;;;;;5041750;28;20617;-76
2021/12/09 13:29:03;;;;;;;29.63;17.45;;;6.10;99.90;;;;;;5051116;28;20392;-75
2021/12/09 13:31:53;;;;;;;26.67;16.70;;;6.10;99.90;;;;;;5053859;28;20025;-74
2021/12/09 13:34:47;;;;;;;33.78;18.20;;;6.00;99.90;;;;;;5053116;28;20082;-73
2021/12/09 13:45:47;;;;;;;30.13;16.85;;;6.00;99.90;;;;;;5051553;28;20048;-73
2021/12/09 13:48:17;;;;;;;31.35;17.20;;;6.10;99.90;;;;;;5052383;28;20082;-74
2021/12/09 13:55:36;;;;;;;23.95;15.25;;;6.10;99.90;;;;;;5043322;28;20381;-75
2021/12/09 13:58:10;;;;;;;24.70;15.32;;;6.10;99.90;;;;;;5051896;28;20060;-75
2021/12/09 14:00:41;;;;;;;23.77;15.85;;;6.10;99.90;;;;;;5053232;28;20029;-75
2021/12/09 14:03:12;;;;;;;28.48;15.60;;;6.00;99.90;;;;;;5054084;28;20025;-75